sensor_id;sensor_type;location;lat;lon;timestamp;pressure;altitude;pressure_sealevel;temperature;humidity
70437;BME280;57877;39.750;-104.894;2023-07-31T00:01:25;84016.50;;;32.84;14.45
70437;BME280;57877;39.750;-104.894;2023-07-31T00:03:50;84007.93;;;33.73;14.27
70437;BME280;57877;39.750;-104.894;2023-07-31T00:06:15;84005.95;;;33.00;13.93
70437;BME280;57877;39.750;-104.894;2023-07-31T00:08:40;84006.00;;;33.00;14.33
70437;BME280;57877;39.750;-104.894;2023-07-31T00:11:05;84005.87;;;33.41;13.82
70437;BME280;57877;39.750;-104.894;2023-07-31T00:13:31;84005.40;;;33.16;14.12
70437;BME280;57877;39.750;-104.894;2023-07-31T00:15:56;84004.64;;;32.99;14.22
70437;BME280;57877;39.750;-104.894;2023-07-31T00:18:21;84003.68;;;33.76;14.41
70437;BME280;57877;39.750;-104.894;2023-07-31T00:20:46;84006.84;;;33.90;14.86
70437;BME280;57877;39.750;-104.894;2023-07-31T00:23:11;84009.01;;;33.62;13.97
70437;BME280;57877;39.750;-104.894;2023-07-31T00:25:36;84013.62;;;33.67;14.30
70437;BME280;57877;39.750;-104.894;2023-07-31T00:28:01;84014.72;;;33.75;14.10
70437;BME280;57877;39.750;-104.894;2023-07-31T00:30:26;84019.94;;;33.77;14.11
70437;BME280;57877;39.750;-104.894;2023-07-31T00:32:52;84023.62;;;33.45;14.28
70437;BME280;57877;39.750;-104.894;2023-07-31T00:35:17;84025.42;;;33.11;14.39
70437;BME280;57877;39.750;-104.894;2023-07-31T00:37:42;84024.58;;;33.59;14.57
70437;BME280;57877;39.750;-104.894;2023-07-31T00:40:08;84026.21;;;33.59;14.21
70437;BME280;57877;39.750;-104.894;2023-07-31T00:42:32;84027.86;;;33.83;14.48
70437;BME280;57877;39.750;-104.894;2023-07-31T00:44:57;84026.33;;;33.66;14.50
70437;BME280;57877;39.750;-104.894;2023-07-31T00:47:22;84026.54;;;33.29;14.39
70437;BME280;57877;39.750;-104.894;2023-07-31T00:49:48;84021.23;;;33.14;14.33
70437;BME280;57877;39.750;-104.894;2023-07-31T00:52:13;84019.35;;;33.29;14.59
70437;BME280;57877;39.750;-104.894;2023-07-31T00:54:38;84017.37;;;33.09;14.53
70437;BME280;57877;39.750;-104.894;2023-07-31T00:57:03;84021.76;;;33.13;14.24
70437;BME280;57877;39.750;-104.894;2023-07-31T00:59:28;84023.09;;;33.26;14.38
70437;BME280;57877;39.750;-104.894;2023-07-31T01:01:53;84026.95;;;33.26;14.56
70437;BME280;57877;39.750;-104.894;2023-07-31T01:04:18;84032.68;;;33.12;14.80
70437;BME280;57877;39.750;-104.894;2023-07-31T01:06:48;84029.70;;;33.28;14.57
70437;BME280;57877;39.750;-104.894;2023-07-31T01:09:14;84032.32;;;33.17;14.72
70437;BME280;57877;39.750;-104.894;2023-07-31T01:11:39;84029.01;;;33.00;14.62
70437;BME280;57877;39.750;-104.894;2023-07-31T01:13:59;84033.88;;;33.13;14.56
70437;BME280;57877;39.750;-104.894;2023-07-31T01:16:24;84036.91;;;32.62;14.74
70437;BME280;57877;39.750;-104.894;2023-07-31T01:18:49;84043.04;;;32.86;14.79
70437;BME280;57877;39.750;-104.894;2023-07-31T01:21:33;84045.02;;;33.36;14.93
70437;BME280;57877;39.750;-104.894;2023-07-31T01:23:56;84048.06;;;33.00;14.88
70437;BME280;57877;39.750;-104.894;2023-07-31T01:26:08;84050.24;;;32.72;14.97
70437;BME280;57877;39.750;-104.894;2023-07-31T01:28:35;84055.91;;;32.82;15.17
70437;BME280;57877;39.750;-104.894;2023-07-31T01:30:56;84054.05;;;32.18;15.18
70437;BME280;57877;39.750;-104.894;2023-07-31T01:33:19;84059.09;;;32.52;15.18
70437;BME280;57877;39.750;-104.894;2023-07-31T01:35:45;84063.63;;;32.29;15.25
70437;BME280;57877;39.750;-104.894;2023-07-31T01:38:09;84067.35;;;31.76;15.51
70437;BME280;57877;39.750;-104.894;2023-07-31T01:40:34;84071.58;;;32.03;15.37
70437;BME280;57877;39.750;-104.894;2023-07-31T01:42:59;84076.89;;;31.70;15.54
70437;BME280;57877;39.750;-104.894;2023-07-31T01:45:24;84080.96;;;31.48;15.74
70437;BME280;57877;39.750;-104.894;2023-07-31T01:47:49;84081.74;;;31.68;15.74
70437;BME280;57877;39.750;-104.894;2023-07-31T01:50:14;84081.07;;;31.68;15.81
70437;BME280;57877;39.750;-104.894;2023-07-31T01:52:39;84086.67;;;30.88;16.03
70437;BME280;57877;39.750;-104.894;2023-07-31T01:55:05;84093.41;;;31.33;16.05
70437;BME280;57877;39.750;-104.894;2023-07-31T01:57:29;84085.44;;;31.23;16.18
70437;BME280;57877;39.750;-104.894;2023-07-31T01:59:55;84084.13;;;31.32;16.15
70437;BME280;57877;39.750;-104.894;2023-07-31T02:02:19;84085.21;;;31.30;15.96
70437;BME280;57877;39.750;-104.894;2023-07-31T02:04:45;84088.84;;;31.41;16.09
70437;BME280;57877;39.750;-104.894;2023-07-31T02:07:10;84085.48;;;31.35;16.00
70437;BME280;57877;39.750;-104.894;2023-07-31T02:09:35;84083.14;;;31.30;15.93
70437;BME280;57877;39.750;-104.894;2023-07-31T02:12:00;84080.08;;;31.31;15.90
70437;BME280;57877;39.750;-104.894;2023-07-31T02:14:25;84082.68;;;31.31;16.01
70437;BME280;57877;39.750;-104.894;2023-07-31T02:16:50;84080.97;;;31.27;16.12
70437;BME280;57877;39.750;-104.894;2023-07-31T02:19:15;84077.02;;;31.08;16.21
70437;BME280;57877;39.750;-104.894;2023-07-31T02:21:40;84074.80;;;31.03;16.15
70437;BME280;57877;39.750;-104.894;2023-07-31T02:24:05;84073.70;;;31.10;16.27
70437;BME280;57877;39.750;-104.894;2023-07-31T02:26:30;84072.11;;;31.01;16.59
70437;BME280;57877;39.750;-104.894;2023-07-31T02:28:55;84069.24;;;31.07;16.52
70437;BME280;57877;39.750;-104.894;2023-07-31T02:31:20;84068.47;;;31.01;16.33
70437;BME280;57877;39.750;-104.894;2023-07-31T02:33:45;84065.92;;;30.70;16.60
70437;BME280;57877;39.750;-104.894;2023-07-31T02:36:10;84068.43;;;31.05;16.70
70437;BME280;57877;39.750;-104.894;2023-07-31T02:38:35;84067.80;;;30.79;16.82
70437;BME280;57877;39.750;-104.894;2023-07-31T02:41:00;84067.40;;;30.74;17.07
70437;BME280;57877;39.750;-104.894;2023-07-31T02:43:25;84067.39;;;30.62;17.42
70437;BME280;57877;39.750;-104.894;2023-07-31T02:45:52;84070.35;;;30.73;17.33
70437;BME280;57877;39.750;-104.894;2023-07-31T02:48:15;84074.09;;;30.68;17.56
70437;BME280;57877;39.750;-104.894;2023-07-31T02:50:40;84072.82;;;30.54;17.68
70437;BME280;57877;39.750;-104.894;2023-07-31T02:53:05;84076.12;;;30.74;17.56
70437;BME280;57877;39.750;-104.894;2023-07-31T02:55:31;84078.87;;;30.61;17.13
70437;BME280;57877;39.750;-104.894;2023-07-31T02:57:56;84083.57;;;30.08;17.89
70437;BME280;57877;39.750;-104.894;2023-07-31T03:00:21;84089.18;;;29.72;18.42
70437;BME280;57877;39.750;-104.894;2023-07-31T03:02:47;84086.49;;;28.82;19.14
70437;BME280;57877;39.750;-104.894;2023-07-31T03:05:11;84089.55;;;29.07;19.59
70437;BME280;57877;39.750;-104.894;2023-07-31T03:07:37;84088.39;;;28.93;19.95
70437;BME280;57877;39.750;-104.894;2023-07-31T03:10:01;84084.75;;;29.07;19.48
70437;BME280;57877;39.750;-104.894;2023-07-31T03:12:29;84084.93;;;29.01;19.86
70437;BME280;57877;39.750;-104.894;2023-07-31T03:14:53;84088.04;;;29.46;19.96
70437;BME280;57877;39.750;-104.894;2023-07-31T03:17:19;84089.61;;;29.50;19.98
70437;BME280;57877;39.750;-104.894;2023-07-31T03:19:44;84087.00;;;29.52;19.50
70437;BME280;57877;39.750;-104.894;2023-07-31T03:22:10;84087.37;;;29.57;19.79
70437;BME280;57877;39.750;-104.894;2023-07-31T03:24:35;84081.61;;;29.55;19.66
70437;BME280;57877;39.750;-104.894;2023-07-31T03:27:01;84077.86;;;29.59;19.56
70437;BME280;57877;39.750;-104.894;2023-07-31T03:29:27;84079.24;;;29.48;19.52
70437;BME280;57877;39.750;-104.894;2023-07-31T03:31:52;84080.55;;;29.20;19.43
70437;BME280;57877;39.750;-104.894;2023-07-31T03:34:18;84082.95;;;29.47;19.16
70437;BME280;57877;39.750;-104.894;2023-07-31T03:36:43;84084.48;;;29.50;18.97
70437;BME280;57877;39.750;-104.894;2023-07-31T03:39:08;84085.86;;;29.48;19.11
70437;BME280;57877;39.750;-104.894;2023-07-31T03:41:33;84086.45;;;29.24;19.06
70437;BME280;57877;39.750;-104.894;2023-07-31T03:43:58;84087.51;;;29.46;19.05
70437;BME280;57877;39.750;-104.894;2023-07-31T03:46:23;84084.16;;;29.62;19.34
70437;BME280;57877;39.750;-104.894;2023-07-31T03:48:48;84078.56;;;29.44;19.18
70437;BME280;57877;39.750;-104.894;2023-07-31T03:51:13;84076.74;;;29.46;19.35
70437;BME280;57877;39.750;-104.894;2023-07-31T03:53:39;84077.92;;;29.67;19.66
70437;BME280;57877;39.750;-104.894;2023-07-31T03:56:05;84077.66;;;29.37;19.49
70437;BME280;57877;39.750;-104.894;2023-07-31T03:58:30;84079.19;;;29.57;19.62
70437;BME280;57877;39.750;-104.894;2023-07-31T04:00:56;84079.17;;;29.26;19.67
70437;BME280;57877;39.750;-104.894;2023-07-31T04:03:22;84069.98;;;28.94;19.38
70437;BME280;57877;39.750;-104.894;2023-07-31T04:05:48;84063.49;;;29.04;19.40
70437;BME280;57877;39.750;-104.894;2023-07-31T04:08:14;84056.79;;;28.99;19.50
70437;BME280;57877;39.750;-104.894;2023-07-31T04:10:40;84048.31;;;28.78;19.64
70437;BME280;57877;39.750;-104.894;2023-07-31T04:13:06;84048.25;;;29.02;19.84
70437;BME280;57877;39.750;-104.894;2023-07-31T04:15:32;84045.57;;;28.89;20.08
70437;BME280;57877;39.750;-104.894;2023-07-31T04:17:58;84047.79;;;28.82;20.70
70437;BME280;57877;39.750;-104.894;2023-07-31T04:20:24;84045.98;;;28.83;20.60
70437;BME280;57877;39.750;-104.894;2023-07-31T04:22:50;84041.05;;;28.54;20.69
70437;BME280;57877;39.750;-104.894;2023-07-31T04:25:16;84032.82;;;28.46;21.20
70437;BME280;57877;39.750;-104.894;2023-07-31T04:27:42;84024.39;;;28.07;21.46
70437;BME280;57877;39.750;-104.894;2023-07-31T04:30:09;84023.88;;;28.38;21.26
70437;BME280;57877;39.750;-104.894;2023-07-31T04:32:34;84018.24;;;28.43;21.20
70437;BME280;57877;39.750;-104.894;2023-07-31T04:35:00;84012.98;;;27.52;20.85
70437;BME280;57877;39.750;-104.894;2023-07-31T04:37:26;84005.95;;;28.58;20.50
70437;BME280;57877;39.750;-104.894;2023-07-31T04:39:52;84002.64;;;28.73;20.05
70437;BME280;57877;39.750;-104.894;2023-07-31T04:42:18;83998.56;;;28.21;19.98
70437;BME280;57877;39.750;-104.894;2023-07-31T04:44:44;83996.65;;;28.63;20.02
70437;BME280;57877;39.750;-104.894;2023-07-31T04:47:10;83993.13;;;28.04;20.29
70437;BME280;57877;39.750;-104.894;2023-07-31T04:49:36;83994.40;;;28.49;20.73
70437;BME280;57877;39.750;-104.894;2023-07-31T04:52:02;83989.38;;;28.40;20.80
70437;BME280;57877;39.750;-104.894;2023-07-31T04:54:28;83986.82;;;28.11;21.30
70437;BME280;57877;39.750;-104.894;2023-07-31T04:56:54;83987.68;;;28.06;21.73
70437;BME280;57877;39.750;-104.894;2023-07-31T04:59:20;83989.19;;;27.77;22.29
70437;BME280;57877;39.750;-104.894;2023-07-31T05:01:46;83990.66;;;27.21;22.95
70437;BME280;57877;39.750;-104.894;2023-07-31T05:04:13;83991.66;;;27.14;23.01
70437;BME280;57877;39.750;-104.894;2023-07-31T05:06:38;83988.64;;;27.16;22.63
70437;BME280;57877;39.750;-104.894;2023-07-31T05:09:04;83985.58;;;27.56;22.52
70437;BME280;57877;39.750;-104.894;2023-07-31T05:11:30;83985.19;;;28.01;22.37
70437;BME280;57877;39.750;-104.894;2023-07-31T05:13:56;83987.81;;;27.71;22.25
70437;BME280;57877;39.750;-104.894;2023-07-31T05:16:22;83987.15;;;28.06;22.31
70437;BME280;57877;39.750;-104.894;2023-07-31T05:18:48;83987.69;;;27.95;21.88
70437;BME280;57877;39.750;-104.894;2023-07-31T05:21:14;83987.86;;;28.14;21.72
70437;BME280;57877;39.750;-104.894;2023-07-31T05:23:40;83986.44;;;27.57;21.99
70437;BME280;57877;39.750;-104.894;2023-07-31T05:26:06;83982.34;;;27.61;21.94
70437;BME280;57877;39.750;-104.894;2023-07-31T05:28:33;83984.46;;;27.51;22.21
70437;BME280;57877;39.750;-104.894;2023-07-31T05:30:59;83984.32;;;27.29;22.58
70437;BME280;57877;39.750;-104.894;2023-07-31T05:33:24;83984.39;;;27.60;22.67
70437;BME280;57877;39.750;-104.894;2023-07-31T05:35:50;83983.31;;;27.13;22.56
70437;BME280;57877;39.750;-104.894;2023-07-31T05:38:16;83986.14;;;27.11;22.56
70437;BME280;57877;39.750;-104.894;2023-07-31T05:40:43;83988.00;;;27.36;22.53
70437;BME280;57877;39.750;-104.894;2023-07-31T05:43:08;83983.34;;;27.41;22.66
70437;BME280;57877;39.750;-104.894;2023-07-31T05:45:34;83982.54;;;27.58;22.41
70437;BME280;57877;39.750;-104.894;2023-07-31T05:48:00;83978.45;;;27.44;22.12
70437;BME280;57877;39.750;-104.894;2023-07-31T05:50:26;83980.27;;;27.13;22.28
70437;BME280;57877;39.750;-104.894;2023-07-31T05:52:52;83978.01;;;27.14;22.43
70437;BME280;57877;39.750;-104.894;2023-07-31T05:55:18;83978.64;;;27.29;22.50
70437;BME280;57877;39.750;-104.894;2023-07-31T05:57:44;83975.48;;;27.06;22.73
70437;BME280;57877;39.750;-104.894;2023-07-31T06:00:12;83977.79;;;27.25;22.45
70437;BME280;57877;39.750;-104.894;2023-07-31T06:02:36;83976.14;;;26.84;22.53
70437;BME280;57877;39.750;-104.894;2023-07-31T06:05:02;83977.68;;;26.81;22.68
70437;BME280;57877;39.750;-104.894;2023-07-31T06:07:28;83974.97;;;26.94;23.03
70437;BME280;57877;39.750;-104.894;2023-07-31T06:09:54;83978.01;;;26.90;22.91
70437;BME280;57877;39.750;-104.894;2023-07-31T06:12:20;83980.91;;;26.69;22.92
70437;BME280;57877;39.750;-104.894;2023-07-31T06:14:46;83981.05;;;27.09;22.97
70437;BME280;57877;39.750;-104.894;2023-07-31T06:17:12;83977.65;;;26.23;23.43
70437;BME280;57877;39.750;-104.894;2023-07-31T06:19:38;83975.46;;;27.02;22.76
70437;BME280;57877;39.750;-104.894;2023-07-31T06:22:04;83975.78;;;26.50;22.81
70437;BME280;57877;39.750;-104.894;2023-07-31T06:24:30;83975.92;;;26.17;23.46
70437;BME280;57877;39.750;-104.894;2023-07-31T06:26:56;83983.73;;;26.31;23.27
70437;BME280;57877;39.750;-104.894;2023-07-31T06:29:22;83987.06;;;26.14;23.08
70437;BME280;57877;39.750;-104.894;2023-07-31T06:31:48;83987.35;;;26.16;23.18
70437;BME280;57877;39.750;-104.894;2023-07-31T06:34:14;83987.96;;;26.35;23.06
70437;BME280;57877;39.750;-104.894;2023-07-31T06:36:39;83986.62;;;26.35;23.02
70437;BME280;57877;39.750;-104.894;2023-07-31T06:39:05;83987.99;;;26.24;23.08
70437;BME280;57877;39.750;-104.894;2023-07-31T06:41:31;83987.62;;;26.18;23.04
70437;BME280;57877;39.750;-104.894;2023-07-31T06:43:58;83995.49;;;25.97;23.00
70437;BME280;57877;39.750;-104.894;2023-07-31T06:46:23;83996.55;;;25.58;23.22
70437;BME280;57877;39.750;-104.894;2023-07-31T06:48:49;84002.52;;;25.79;23.21
70437;BME280;57877;39.750;-104.894;2023-07-31T06:51:15;84005.89;;;25.48;23.68
70437;BME280;57877;39.750;-104.894;2023-07-31T06:53:41;84007.08;;;25.61;23.57
70437;BME280;57877;39.750;-104.894;2023-07-31T06:56:07;84010.45;;;25.44;23.54
70437;BME280;57877;39.750;-104.894;2023-07-31T06:58:33;84009.86;;;25.52;23.45
70437;BME280;57877;39.750;-104.894;2023-07-31T07:00:59;84013.96;;;25.85;23.17
70437;BME280;57877;39.750;-104.894;2023-07-31T07:03:25;84014.81;;;25.90;23.11
70437;BME280;57877;39.750;-104.894;2023-07-31T07:05:51;84012.22;;;26.26;22.88
70437;BME280;57877;39.750;-104.894;2023-07-31T07:08:17;84012.50;;;26.05;22.98
70437;BME280;57877;39.750;-104.894;2023-07-31T07:10:43;84013.04;;;25.95;23.08
70437;BME280;57877;39.750;-104.894;2023-07-31T07:13:09;84015.26;;;25.89;23.10
70437;BME280;57877;39.750;-104.894;2023-07-31T07:15:35;84014.26;;;25.75;22.99
70437;BME280;57877;39.750;-104.894;2023-07-31T07:18:01;84017.49;;;26.21;22.56
70437;BME280;57877;39.750;-104.894;2023-07-31T07:20:27;84022.20;;;26.05;22.59
70437;BME280;57877;39.750;-104.894;2023-07-31T07:22:53;84021.42;;;26.08;22.82
70437;BME280;57877;39.750;-104.894;2023-07-31T07:25:19;84020.17;;;25.74;22.82
70437;BME280;57877;39.750;-104.894;2023-07-31T07:27:45;84019.93;;;25.75;22.74
70437;BME280;57877;39.750;-104.894;2023-07-31T07:30:11;84016.19;;;25.93;22.65
70437;BME280;57877;39.750;-104.894;2023-07-31T07:32:37;84014.71;;;25.31;22.74
70437;BME280;57877;39.750;-104.894;2023-07-31T07:35:03;84015.95;;;25.46;23.00
70437;BME280;57877;39.750;-104.894;2023-07-31T07:37:29;84014.71;;;25.48;22.84
70437;BME280;57877;39.750;-104.894;2023-07-31T07:39:55;84016.45;;;25.73;22.64
70437;BME280;57877;39.750;-104.894;2023-07-31T07:42:21;84019.94;;;25.73;22.57
70437;BME280;57877;39.750;-104.894;2023-07-31T07:44:47;84020.75;;;25.61;22.74
70437;BME280;57877;39.750;-104.894;2023-07-31T07:47:13;84022.97;;;25.09;23.22
70437;BME280;57877;39.750;-104.894;2023-07-31T07:49:39;84027.14;;;25.80;22.95
70437;BME280;57877;39.750;-104.894;2023-07-31T07:52:05;84031.53;;;25.80;22.73
70437;BME280;57877;39.750;-104.894;2023-07-31T07:54:31;84028.29;;;25.06;23.32
70437;BME280;57877;39.750;-104.894;2023-07-31T07:56:57;84025.30;;;25.15;23.29
70437;BME280;57877;39.750;-104.894;2023-07-31T07:59:23;84026.56;;;25.22;23.31
70437;BME280;57877;39.750;-104.894;2023-07-31T08:01:49;84024.09;;;25.79;23.07
70437;BME280;57877;39.750;-104.894;2023-07-31T08:04:15;84023.02;;;25.78;22.90
70437;BME280;57877;39.750;-104.894;2023-07-31T08:06:41;84028.03;;;25.68;23.02
70437;BME280;57877;39.750;-104.894;2023-07-31T08:09:07;84033.49;;;25.78;23.04
70437;BME280;57877;39.750;-104.894;2023-07-31T08:11:33;84038.75;;;26.05;22.85
70437;BME280;57877;39.750;-104.894;2023-07-31T08:13:59;84039.92;;;25.89;22.77
70437;BME280;57877;39.750;-104.894;2023-07-31T08:16:25;84041.57;;;25.43;23.01
70437;BME280;57877;39.750;-104.894;2023-07-31T08:18:51;84042.13;;;25.98;22.73
70437;BME280;57877;39.750;-104.894;2023-07-31T08:21:17;84038.94;;;25.40;23.26
70437;BME280;57877;39.750;-104.894;2023-07-31T08:23:43;84037.57;;;25.55;23.53
70437;BME280;57877;39.750;-104.894;2023-07-31T08:26:15;84034.02;;;25.54;23.49
70437;BME280;57877;39.750;-104.894;2023-07-31T08:28:35;84032.31;;;25.84;23.32
70437;BME280;57877;39.750;-104.894;2023-07-31T08:31:01;84030.22;;;25.33;23.82
70437;BME280;57877;39.750;-104.894;2023-07-31T08:33:27;84029.51;;;25.52;23.78
70437;BME280;57877;39.750;-104.894;2023-07-31T08:35:53;84024.71;;;25.34;23.96
70437;BME280;57877;39.750;-104.894;2023-07-31T08:38:19;84025.68;;;25.16;24.13
70437;BME280;57877;39.750;-104.894;2023-07-31T08:40:45;84024.05;;;24.92;24.15
70437;BME280;57877;39.750;-104.894;2023-07-31T08:43:11;84022.04;;;25.31;23.81
70437;BME280;57877;39.750;-104.894;2023-07-31T08:45:37;84021.35;;;25.41;23.87
70437;BME280;57877;39.750;-104.894;2023-07-31T08:48:02;84023.53;;;25.54;23.75
70437;BME280;57877;39.750;-104.894;2023-07-31T08:50:27;84024.70;;;25.41;23.75
70437;BME280;57877;39.750;-104.894;2023-07-31T08:52:52;84024.98;;;25.25;23.89
70437;BME280;57877;39.750;-104.894;2023-07-31T08:55:18;84024.42;;;25.24;23.97
70437;BME280;57877;39.750;-104.894;2023-07-31T08:57:43;84020.88;;;25.13;24.08
70437;BME280;57877;39.750;-104.894;2023-07-31T09:00:09;84016.68;;;25.28;23.85
70437;BME280;57877;39.750;-104.894;2023-07-31T09:02:38;84017.15;;;25.11;24.05
70437;BME280;57877;39.750;-104.894;2023-07-31T09:04:58;84021.54;;;24.79;24.32
70437;BME280;57877;39.750;-104.894;2023-07-31T09:07:23;84027.15;;;25.42;24.09
70437;BME280;57877;39.750;-104.894;2023-07-31T09:09:47;84029.34;;;25.24;24.23
70437;BME280;57877;39.750;-104.894;2023-07-31T09:12:13;84030.85;;;24.79;25.62
70437;BME280;57877;39.750;-104.894;2023-07-31T09:14:39;84028.87;;;24.61;25.45
70437;BME280;57877;39.750;-104.894;2023-07-31T09:17:05;84029.66;;;24.48;25.32
70437;BME280;57877;39.750;-104.894;2023-07-31T09:19:32;84029.34;;;24.76;25.28
70437;BME280;57877;39.750;-104.894;2023-07-31T09:21:55;84033.31;;;24.94;25.18
70437;BME280;57877;39.750;-104.894;2023-07-31T09:24:25;84030.50;;;24.60;25.52
70437;BME280;57877;39.750;-104.894;2023-07-31T09:26:45;84029.45;;;24.74;25.22
70437;BME280;57877;39.750;-104.894;2023-07-31T09:29:19;84031.23;;;25.16;25.01
70437;BME280;57877;39.750;-104.894;2023-07-31T09:31:40;84039.60;;;25.23;24.71
70437;BME280;57877;39.750;-104.894;2023-07-31T09:34:00;84045.92;;;25.26;25.31
70437;BME280;57877;39.750;-104.894;2023-07-31T09:36:25;84047.43;;;25.14;25.63
70437;BME280;57877;39.750;-104.894;2023-07-31T09:38:50;84050.43;;;25.34;25.16
70437;BME280;57877;39.750;-104.894;2023-07-31T09:41:15;84050.12;;;25.14;25.07
70437;BME280;57877;39.750;-104.894;2023-07-31T09:43:40;84055.19;;;25.37;25.14
70437;BME280;57877;39.750;-104.894;2023-07-31T09:46:13;84060.14;;;25.45;24.89
70437;BME280;57877;39.750;-104.894;2023-07-31T09:48:30;84066.01;;;25.01;24.94
70437;BME280;57877;39.750;-104.894;2023-07-31T09:50:55;84068.84;;;24.51;27.00
70437;BME280;57877;39.750;-104.894;2023-07-31T09:53:28;84067.88;;;23.98;27.22
70437;BME280;57877;39.750;-104.894;2023-07-31T09:55:45;84065.23;;;24.49;26.61
70437;BME280;57877;39.750;-104.894;2023-07-31T09:58:11;84063.33;;;24.27;26.56
70437;BME280;57877;39.750;-104.894;2023-07-31T10:00:36;84066.83;;;23.89;26.79
70437;BME280;57877;39.750;-104.894;2023-07-31T10:03:02;84069.13;;;24.37;26.61
70437;BME280;57877;39.750;-104.894;2023-07-31T10:05:30;84074.99;;;24.46;26.54
70437;BME280;57877;39.750;-104.894;2023-07-31T10:07:54;84076.13;;;23.96;27.55
70437;BME280;57877;39.750;-104.894;2023-07-31T10:10:15;84078.99;;;24.15;27.44
70437;BME280;57877;39.750;-104.894;2023-07-31T10:12:41;84079.80;;;24.45;26.84
70437;BME280;57877;39.750;-104.894;2023-07-31T10:15:06;84081.05;;;24.30;26.61
70437;BME280;57877;39.750;-104.894;2023-07-31T10:17:32;84082.17;;;24.58;26.52
70437;BME280;57877;39.750;-104.894;2023-07-31T10:19:57;84084.19;;;24.47;27.19
70437;BME280;57877;39.750;-104.894;2023-07-31T10:22:21;84079.65;;;24.77;26.57
70437;BME280;57877;39.750;-104.894;2023-07-31T10:24:46;84078.83;;;24.90;26.42
70437;BME280;57877;39.750;-104.894;2023-07-31T10:27:11;84078.23;;;24.90;26.41
70437;BME280;57877;39.750;-104.894;2023-07-31T10:29:36;84080.58;;;25.34;26.12
70437;BME280;57877;39.750;-104.894;2023-07-31T10:32:01;84079.67;;;25.17;26.82
70437;BME280;57877;39.750;-104.894;2023-07-31T10:34:26;84081.01;;;24.71;27.16
70437;BME280;57877;39.750;-104.894;2023-07-31T10:36:51;84084.36;;;25.38;26.16
70437;BME280;57877;39.750;-104.894;2023-07-31T10:41:41;84093.48;;;25.01;25.41
70437;BME280;57877;39.750;-104.894;2023-07-31T10:44:07;84099.74;;;24.75;26.73
70437;BME280;57877;39.750;-104.894;2023-07-31T10:46:32;84108.09;;;25.11;26.30
70437;BME280;57877;39.750;-104.894;2023-07-31T10:49:01;84117.47;;;24.54;26.75
70437;BME280;57877;39.750;-104.894;2023-07-31T10:51:21;84126.26;;;24.73;26.87
70437;BME280;57877;39.750;-104.894;2023-07-31T10:53:46;84127.79;;;24.54;27.54
70437;BME280;57877;39.750;-104.894;2023-07-31T10:56:11;84129.94;;;24.69;27.44
70437;BME280;57877;39.750;-104.894;2023-07-31T10:58:38;84132.66;;;24.28;28.17
70437;BME280;57877;39.750;-104.894;2023-07-31T11:01:02;84134.51;;;24.11;28.22
70437;BME280;57877;39.750;-104.894;2023-07-31T11:03:27;84143.13;;;23.59;28.51
70437;BME280;57877;39.750;-104.894;2023-07-31T11:05:52;84158.51;;;24.00;28.76
70437;BME280;57877;39.750;-104.894;2023-07-31T11:08:18;84148.25;;;23.50;28.55
70437;BME280;57877;39.750;-104.894;2023-07-31T11:10:42;84149.03;;;23.22;28.88
70437;BME280;57877;39.750;-104.894;2023-07-31T11:13:07;84156.70;;;23.63;28.21
70437;BME280;57877;39.750;-104.894;2023-07-31T11:15:32;84161.30;;;23.70;28.13
70437;BME280;57877;39.750;-104.894;2023-07-31T11:17:59;84165.37;;;23.21;28.72
70437;BME280;57877;39.750;-104.894;2023-07-31T11:20:22;84160.58;;;23.19;29.51
70437;BME280;57877;39.750;-104.894;2023-07-31T11:22:48;84181.17;;;23.01;29.73
70437;BME280;57877;39.750;-104.894;2023-07-31T11:25:12;84185.78;;;22.55;29.91
70437;BME280;57877;39.750;-104.894;2023-07-31T11:27:40;84182.25;;;23.01;29.72
70437;BME280;57877;39.750;-104.894;2023-07-31T11:30:02;84194.00;;;23.68;29.04
70437;BME280;57877;39.750;-104.894;2023-07-31T11:32:27;84207.74;;;23.37;29.12
70437;BME280;57877;39.750;-104.894;2023-07-31T11:34:52;84214.05;;;23.62;28.69
70437;BME280;57877;39.750;-104.894;2023-07-31T11:37:17;84226.65;;;23.51;28.90
70437;BME280;57877;39.750;-104.894;2023-07-31T11:39:42;84227.57;;;23.08;29.74
70437;BME280;57877;39.750;-104.894;2023-07-31T11:42:07;84224.26;;;22.93;30.58
70437;BME280;57877;39.750;-104.894;2023-07-31T11:44:38;84230.37;;;22.94;31.52
70437;BME280;57877;39.750;-104.894;2023-07-31T11:46:57;84235.29;;;22.62;32.70
70437;BME280;57877;39.750;-104.894;2023-07-31T11:49:22;84227.28;;;23.01;32.52
70437;BME280;57877;39.750;-104.894;2023-07-31T11:51:47;84237.02;;;22.97;32.90
70437;BME280;57877;39.750;-104.894;2023-07-31T11:54:12;84249.26;;;22.76;33.27
70437;BME280;57877;39.750;-104.894;2023-07-31T11:56:37;84259.64;;;22.71;33.08
70437;BME280;57877;39.750;-104.894;2023-07-31T11:59:03;84268.20;;;22.86;33.25
70437;BME280;57877;39.750;-104.894;2023-07-31T12:01:28;84256.89;;;22.67;33.79
70437;BME280;57877;39.750;-104.894;2023-07-31T12:03:53;84261.75;;;22.45;34.51
70437;BME280;57877;39.750;-104.894;2023-07-31T12:06:17;84276.75;;;22.74;34.53
70437;BME280;57877;39.750;-104.894;2023-07-31T12:08:42;84285.12;;;21.82;36.07
70437;BME280;57877;39.750;-104.894;2023-07-31T12:11:09;84291.13;;;22.43;35.31
70437;BME280;57877;39.750;-104.894;2023-07-31T12:13:34;84293.25;;;22.84;34.44
70437;BME280;57877;39.750;-104.894;2023-07-31T12:16:01;84300.52;;;22.39;34.56
70437;BME280;57877;39.750;-104.894;2023-07-31T12:18:27;84306.88;;;22.38;34.54
70437;BME280;57877;39.750;-104.894;2023-07-31T12:20:56;84302.74;;;22.94;34.06
70437;BME280;57877;39.750;-104.894;2023-07-31T12:23:19;84311.31;;;23.19;33.78